createdAt,value
2023-05-12T00:00:52.453Z,13.70
2023-05-12T00:03:20.499Z,13.70
2023-05-12T00:05:48.468Z,13.70
2023-05-12T00:08:16.503Z,13.70
2023-05-12T00:10:44.610Z,13.70
2023-05-12T00:13:12.771Z,13.70
2023-05-12T00:15:42.228Z,13.70
2023-05-12T00:18:10.280Z,13.70
2023-05-12T00:20:39.156Z,13.80
2023-05-12T00:23:07.220Z,13.70
2023-05-12T00:25:35.419Z,13.70
2023-05-12T00:28:03.362Z,13.70
2023-05-12T00:30:31.473Z,13.70
2023-05-12T00:33:00.834Z,13.70
2023-05-12T00:35:28.971Z,13.60
2023-05-12T00:37:56.968Z,13.60
2023-05-12T00:40:24.914Z,13.60
2023-05-12T00:42:52.871Z,13.60
2023-05-12T00:45:21.783Z,13.60
2023-05-12T00:47:50.512Z,13.60
2023-05-12T00:50:20.297Z,13.50
2023-05-12T00:52:49.870Z,13.50
2023-05-12T00:55:18.151Z,13.50
2023-05-12T00:57:46.709Z,13.50
2023-05-12T01:00:16.494Z,13.40
2023-05-12T01:02:47.534Z,13.40
2023-05-12T01:05:16.285Z,13.40
2023-05-12T01:07:47.724Z,13.40
2023-05-12T01:10:20.601Z,13.40
2023-05-12T01:12:49.300Z,13.40
2023-05-12T01:15:18.954Z,13.40
2023-05-12T01:17:54.250Z,13.30
2023-05-12T01:20:26.507Z,13.30
2023-05-12T01:22:56.803Z,13.20
2023-05-12T01:25:29.888Z,13.20
2023-05-12T01:28:00.217Z,13.20
2023-05-12T01:30:33.435Z,13.20
2023-05-12T01:33:02.532Z,13.10
2023-05-12T01:35:30.863Z,13.10
2023-05-12T01:38:01.083Z,13.10
2023-05-12T01:40:29.047Z,13.10
2023-05-12T01:42:59.427Z,13.10
2023-05-12T01:45:31.394Z,13.00
2023-05-12T01:47:59.464Z,13.00
2023-05-12T01:50:27.763Z,12.90
2023-05-12T01:52:56.518Z,12.90
2023-05-12T01:55:24.543Z,12.90
2023-05-12T01:57:56.024Z,12.90
2023-05-12T02:00:25.688Z,12.90
2023-05-12T02:02:56.858Z,12.80
2023-05-12T02:05:25.007Z,12.70
2023-05-12T02:07:53.492Z,12.70
2023-05-12T02:10:22.199Z,12.70
2023-05-12T02:12:50.263Z,12.70
2023-05-12T02:15:18.797Z,12.70
2023-05-12T02:17:53.800Z,12.60
2023-05-12T02:20:22.462Z,12.60
2023-05-12T02:22:50.588Z,12.70
2023-05-12T02:25:18.632Z,12.70
2023-05-12T02:27:46.753Z,12.60
2023-05-12T02:30:15.877Z,12.70
2023-05-12T02:32:43.952Z,12.70
2023-05-12T02:35:14.172Z,12.70
2023-05-12T02:37:43.217Z,12.70
2023-05-12T02:40:11.895Z,12.70
2023-05-12T02:42:41.358Z,12.70
2023-05-12T02:45:10.473Z,12.70
2023-05-12T02:47:38.563Z,12.70
2023-05-12T02:50:09.148Z,12.70
2023-05-12T02:52:38.534Z,12.70
2023-05-12T02:55:07.210Z,12.70
2023-05-12T02:57:35.278Z,12.70
2023-05-12T03:00:05.647Z,12.70
2023-05-12T03:02:36.629Z,12.70
2023-05-12T03:05:05.084Z,12.70
2023-05-12T03:07:33.495Z,12.70
2023-05-12T03:10:03.208Z,12.70
2023-05-12T03:12:32.546Z,12.70
2023-05-12T03:15:00.701Z,12.70
2023-05-12T03:17:28.759Z,12.70
2023-05-12T03:19:56.902Z,12.60
2023-05-12T03:22:24.976Z,12.70
2023-05-12T03:24:53.061Z,12.70
2023-05-12T03:27:23.143Z,12.70
2023-05-12T03:29:51.192Z,12.70
2023-05-12T03:32:19.168Z,12.70
2023-05-12T03:34:47.125Z,12.70
2023-05-12T03:37:16.138Z,12.70
2023-05-12T03:39:45.251Z,12.70
2023-05-12T03:42:14.353Z,12.80
2023-05-12T03:44:43.841Z,12.80
2023-05-12T03:47:12.640Z,12.80
2023-05-12T03:49:41.050Z,12.70
2023-05-12T03:52:09.024Z,12.80
2023-05-12T03:54:38.022Z,12.80
2023-05-12T03:57:06.696Z,12.80
2023-05-12T03:59:34.676Z,12.80
2023-05-12T04:02:04.684Z,12.80
2023-05-12T04:04:32.642Z,12.90
2023-05-12T04:07:01.169Z,12.90
2023-05-12T04:09:29.162Z,12.90
2023-05-12T04:11:57.169Z,12.80
2023-05-12T04:14:35.211Z,12.80
2023-05-12T04:17:05.404Z,12.80
2023-05-12T04:19:33.376Z,12.80
2023-05-12T04:22:01.446Z,12.90
2023-05-12T04:24:31.260Z,12.90
2023-05-12T04:26:59.485Z,12.90
2023-05-12T04:29:27.653Z,12.90
2023-05-12T04:31:56.478Z,12.90
2023-05-12T04:34:25.845Z,12.90
2023-05-12T04:36:54.083Z,12.90
2023-05-12T04:39:22.079Z,12.90
2023-05-12T04:41:50.144Z,13.00
2023-05-12T04:44:18.727Z,12.90
2023-05-12T04:46:46.809Z,13.00
2023-05-12T04:49:14.823Z,13.10
2023-05-12T04:51:44.623Z,13.00
2023-05-12T04:54:12.791Z,13.10
2023-05-12T04:56:41.190Z,13.10
2023-05-12T04:59:09.341Z,13.10
2023-05-12T05:01:37.412Z,13.10
2023-05-12T05:04:05.815Z,13.10
2023-05-12T05:06:33.847Z,13.10
2023-05-12T05:09:03.944Z,13.10
2023-05-12T05:11:32.466Z,13.10
2023-05-12T05:14:00.455Z,13.00
2023-05-12T05:16:28.721Z,13.00
2023-05-12T05:18:58.407Z,13.00
2023-05-12T05:21:26.899Z,13.10
2023-05-12T05:23:54.876Z,13.10
2023-05-12T05:26:25.366Z,13.00
2023-05-12T05:28:55.058Z,13.10
2023-05-12T05:31:25.015Z,13.10
2023-05-12T05:33:53.083Z,13.10
2023-05-12T05:36:21.373Z,13.10
2023-05-12T05:38:49.530Z,13.20
2023-05-12T05:41:17.689Z,13.20
2023-05-12T05:43:47.143Z,13.30
2023-05-12T05:46:15.527Z,13.30
2023-05-12T05:48:43.687Z,13.30
2023-05-12T05:51:15.079Z,13.40
2023-05-12T05:53:43.071Z,13.50
2023-05-12T05:56:11.644Z,13.60
2023-05-12T05:58:39.626Z,13.70
2023-05-12T06:01:10.108Z,13.90
2023-05-12T06:03:38.992Z,14.00
2023-05-12T06:06:07.313Z,14.10
2023-05-12T06:08:35.413Z,14.10
2023-05-12T06:11:03.330Z,14.10
2023-05-12T06:13:31.391Z,14.10
2023-05-12T06:15:59.372Z,14.10
2023-05-12T06:18:28.875Z,14.30
2023-05-12T06:20:56.860Z,14.50
2023-05-12T06:23:24.834Z,14.90
2023-05-12T06:25:52.787Z,15.20
2023-05-12T06:28:20.849Z,15.30
2023-05-12T06:30:48.873Z,15.40
2023-05-12T06:33:16.903Z,15.30
2023-05-12T06:35:47.013Z,15.30
2023-05-12T06:38:15.000Z,15.40
2023-05-12T06:40:45.635Z,15.40
2023-05-12T06:43:13.655Z,15.30
2023-05-12T06:45:45.802Z,15.20
2023-05-12T06:48:13.851Z,15.10
2023-05-12T06:50:42.232Z,15.10
2023-05-12T06:53:11.801Z,14.90
2023-05-12T06:55:40.238Z,14.90
2023-05-12T06:58:10.130Z,14.90
2023-05-12T07:00:38.153Z,14.80
2023-05-12T07:03:06.196Z,14.90
2023-05-12T07:05:34.231Z,14.90
2023-05-12T07:08:02.198Z,15.00
2023-05-12T07:10:35.278Z,15.10
2023-05-12T07:13:03.249Z,15.30
2023-05-12T07:15:32.771Z,15.40
2023-05-12T07:18:01.149Z,15.60
2023-05-12T07:20:29.231Z,15.60
2023-05-12T07:22:57.259Z,15.60
2023-05-12T07:25:25.389Z,15.80
2023-05-12T07:27:54.742Z,15.70
2023-05-12T07:30:23.383Z,15.80
2023-05-12T07:32:51.407Z,15.70
2023-05-12T07:35:19.604Z,15.80
2023-05-12T07:37:47.725Z,16.00
2023-05-12T07:40:15.881Z,16.20
2023-05-12T07:42:44.170Z,16.00
2023-05-12T07:45:13.659Z,16.10
2023-05-12T07:47:41.954Z,16.10
2023-05-12T07:50:11.050Z,16.30
2023-05-12T07:52:46.773Z,16.50
2023-05-12T07:55:15.394Z,16.50
2023-05-12T07:57:43.510Z,16.30
2023-05-12T08:00:14.362Z,16.30
2023-05-12T08:02:43.200Z,16.50
2023-05-12T08:05:11.802Z,16.60
2023-05-12T08:07:43.417Z,16.60
2023-05-12T08:10:12.936Z,16.50
2023-05-12T08:12:41.284Z,16.50
2023-05-12T08:15:10.314Z,16.40
2023-05-12T08:17:39.782Z,16.40
2023-05-12T08:20:09.019Z,16.30
2023-05-12T08:22:37.100Z,16.30
2023-05-12T08:25:05.935Z,16.40
2023-05-12T08:27:33.975Z,16.60
2023-05-12T08:30:01.969Z,16.80
2023-05-12T08:32:30.013Z,16.90
2023-05-12T08:35:02.010Z,17.00
2023-05-12T08:37:34.332Z,16.90
2023-05-12T08:40:04.086Z,16.80
2023-05-12T08:42:38.092Z,17.30
2023-05-12T08:45:07.616Z,17.50
2023-05-12T08:47:36.966Z,17.20
2023-05-12T08:50:07.656Z,17.00
2023-05-12T08:52:40.605Z,16.80
2023-05-12T08:55:11.792Z,16.70
2023-05-12T08:57:45.315Z,16.40
2023-05-12T09:00:15.140Z,16.60
2023-05-12T09:02:52.963Z,16.60
2023-05-12T09:05:24.140Z,16.50
2023-05-12T09:07:54.827Z,16.50
2023-05-12T09:10:34.623Z,16.60
2023-05-12T09:13:07.825Z,16.80
2023-05-12T09:15:39.646Z,16.70
2023-05-12T09:18:07.828Z,16.70
2023-05-12T09:20:37.557Z,16.90
2023-05-12T09:23:16.433Z,17.10
2023-05-12T09:25:44.737Z,17.30
2023-05-12T09:28:12.855Z,17.60
2023-05-12T09:30:42.417Z,17.60
2023-05-12T09:33:11.778Z,17.70
2023-05-12T09:35:42.625Z,17.80
2023-05-12T09:38:12.760Z,18.20
2023-05-12T09:40:41.030Z,18.80
2023-05-12T09:43:09.777Z,19.10
2023-05-12T09:45:39.705Z,19.60
2023-05-12T09:48:11.958Z,19.40
2023-05-12T09:50:48.985Z,19.90
2023-05-12T09:53:18.280Z,20.00
2023-05-12T09:55:47.081Z,20.90
2023-05-12T09:58:17.072Z,21.10
2023-05-12T10:01:06.000Z,20.30
2023-05-12T10:03:36.297Z,19.50
2023-05-12T10:06:08.529Z,19.10
2023-05-12T10:08:42.422Z,18.90
2023-05-12T10:11:11.656Z,18.70
2023-05-12T10:13:40.065Z,18.70
2023-05-12T10:16:08.931Z,18.60
2023-05-12T10:18:37.407Z,18.70
2023-05-12T10:21:08.108Z,18.60
2023-05-12T10:23:38.081Z,18.70
2023-05-12T10:26:07.583Z,19.80
2023-05-12T10:28:35.549Z,20.50
2023-05-12T10:31:06.869Z,21.30
2023-05-12T10:33:34.908Z,21.10
2023-05-12T10:36:03.882Z,20.90
2023-05-12T10:38:38.417Z,20.40
2023-05-12T10:41:07.565Z,19.90
2023-05-12T10:43:41.896Z,19.60
2023-05-12T10:46:11.178Z,19.60
2023-05-12T10:48:54.438Z,19.60
2023-05-12T10:51:23.875Z,19.60
2023-05-12T10:54:00.361Z,20.10
2023-05-12T10:56:30.867Z,20.40
2023-05-12T10:59:12.025Z,20.40
2023-05-12T11:01:41.680Z,20.50
2023-05-12T11:04:16.930Z,20.70
2023-05-12T11:06:46.973Z,20.90
2023-05-12T11:09:18.059Z,20.60
2023-05-12T11:11:47.574Z,20.10
2023-05-12T11:14:16.302Z,19.70
2023-05-12T11:16:44.679Z,20.00
2023-05-12T11:19:13.234Z,20.00
2023-05-12T11:21:41.948Z,20.20
2023-05-12T11:24:14.804Z,20.50
2023-05-12T11:26:44.432Z,20.80
2023-05-12T11:29:12.526Z,20.60
2023-05-12T11:31:41.607Z,20.50
2023-05-12T11:34:12.699Z,20.70
2023-05-12T11:36:44.226Z,20.90
2023-05-12T11:39:16.943Z,20.70
2023-05-12T11:41:46.452Z,20.40
2023-05-12T11:44:16.001Z,19.70
2023-05-12T11:46:54.265Z,19.70
2023-05-12T11:49:22.315Z,19.60
2023-05-12T11:51:52.732Z,19.50
2023-05-12T11:54:20.971Z,19.20
2023-05-12T11:56:51.702Z,18.80
2023-05-12T11:59:30.513Z,18.50
2023-05-12T12:01:59.061Z,18.30
2023-05-12T12:04:34.997Z,18.20
2023-05-12T12:07:03.590Z,18.20
2023-05-12T12:09:32.973Z,18.20
2023-05-12T12:12:03.332Z,18.60
2023-05-12T12:14:32.749Z,19.20
2023-05-12T12:17:01.087Z,19.50
2023-05-12T12:19:29.268Z,20.30
2023-05-12T12:21:57.524Z,21.10
2023-05-12T12:27:07.458Z,21.50
2023-05-12T12:29:35.417Z,21.10
2023-05-12T12:32:03.376Z,20.50
2023-05-12T12:34:31.792Z,20.20
2023-05-12T12:37:30.750Z,19.90
2023-05-12T12:39:59.210Z,19.80
2023-05-12T12:42:28.801Z,19.80
2023-05-12T12:44:56.762Z,19.70
2023-05-12T12:47:24.833Z,19.50
2023-05-12T12:49:52.813Z,19.50
2023-05-12T12:52:20.794Z,19.90
2023-05-12T12:54:48.965Z,20.00
2023-05-12T12:57:17.396Z,20.10
2023-05-12T12:59:47.400Z,20.20
2023-05-12T13:02:16.482Z,20.20
2023-05-12T13:04:44.767Z,20.10
2023-05-12T13:07:13.426Z,19.90
2023-05-12T13:09:41.390Z,19.70
2023-05-12T13:12:09.768Z,19.70
2023-05-12T13:14:37.719Z,19.60
2023-05-12T13:17:07.992Z,19.60
2023-05-12T13:19:38.031Z,19.70
2023-05-12T13:22:06.468Z,19.90
2023-05-12T13:24:34.488Z,20.10
2023-05-12T13:27:02.404Z,20.20
2023-05-12T13:29:30.348Z,20.40
2023-05-12T13:31:58.349Z,20.30
2023-05-12T13:34:27.745Z,20.20
2023-05-12T13:36:55.765Z,20.10
2023-05-12T13:39:23.755Z,20.00
2023-05-12T13:41:51.734Z,20.00
2023-05-12T13:44:20.170Z,19.90
2023-05-12T13:46:48.400Z,20.00
2023-05-12T13:49:16.476Z,20.10
2023-05-12T13:51:45.795Z,19.90
2023-05-12T13:54:13.749Z,19.80
2023-05-12T13:56:41.785Z,19.80
2023-05-12T13:59:10.383Z,20.00
2023-05-12T14:01:39.188Z,20.30
2023-05-12T14:04:07.254Z,20.30
2023-05-12T14:06:35.330Z,20.10
2023-05-12T14:09:05.872Z,20.10
2023-05-12T14:11:33.964Z,20.10
2023-05-12T14:14:06.915Z,20.10
2023-05-12T14:16:35.025Z,19.90
2023-05-12T14:19:03.119Z,19.80
2023-05-12T14:21:31.181Z,19.70
2023-05-12T14:23:59.406Z,19.70
2023-05-12T14:26:28.686Z,19.80
2023-05-12T14:28:56.760Z,19.80
2023-05-12T14:31:24.832Z,19.90
2023-05-12T14:33:53.317Z,19.90
2023-05-12T14:36:21.278Z,20.10
2023-05-12T14:38:49.828Z,20.30
2023-05-12T14:41:17.833Z,20.40
2023-05-12T14:43:47.132Z,20.50
2023-05-12T14:46:15.372Z,20.70
2023-05-12T14:48:44.208Z,20.80
2023-05-12T14:51:12.254Z,20.70
2023-05-12T14:53:40.271Z,20.50
2023-05-12T14:56:08.852Z,20.30
2023-05-12T14:58:36.854Z,20.10
2023-05-12T15:01:09.241Z,19.90
2023-05-12T15:03:37.534Z,19.80
2023-05-12T15:06:07.701Z,19.80
2023-05-12T15:08:36.281Z,19.70
2023-05-12T15:11:04.405Z,19.70
2023-05-12T15:13:32.642Z,19.80
2023-05-12T15:16:01.276Z,19.80
2023-05-12T15:18:30.646Z,19.90
2023-05-12T15:20:58.662Z,19.90
2023-05-12T15:23:26.674Z,20.00
2023-05-12T15:25:54.681Z,20.00
2023-05-12T15:28:22.622Z,20.00
2023-05-12T15:30:56.588Z,20.10
2023-05-12T15:33:24.810Z,20.00
2023-05-12T15:35:54.122Z,20.00
2023-05-12T15:38:22.148Z,20.00
2023-05-12T15:40:50.151Z,20.10
2023-05-12T15:43:18.140Z,20.10
2023-05-12T15:45:46.268Z,20.10
2023-05-12T15:48:14.225Z,20.10
2023-05-12T15:50:42.250Z,20.20
2023-05-12T15:53:12.574Z,20.20
2023-05-12T15:55:40.533Z,20.30
2023-05-12T15:58:09.042Z,20.50
2023-05-12T16:00:37.358Z,20.50
2023-05-12T16:03:05.686Z,20.40
2023-05-12T16:05:37.647Z,20.30
2023-05-12T16:08:05.694Z,20.00
2023-05-12T16:10:35.011Z,19.80
2023-05-12T16:13:02.954Z,19.70
2023-05-12T16:15:31.152Z,19.60
2023-05-12T16:17:59.306Z,19.40
2023-05-12T16:20:27.305Z,19.20
2023-05-12T16:22:55.294Z,19.00
2023-05-12T16:25:23.312Z,18.90
2023-05-12T16:27:52.860Z,18.60
2023-05-12T16:30:20.952Z,18.50
2023-05-12T16:32:49.172Z,18.50
2023-05-12T16:35:17.544Z,18.40
2023-05-12T16:37:45.523Z,18.30
2023-05-12T16:40:13.807Z,18.30
2023-05-12T16:42:42.649Z,18.10
2023-05-12T16:45:12.973Z,18.10
2023-05-12T16:47:40.977Z,18.00
2023-05-12T16:50:10.143Z,17.90
2023-05-12T16:52:38.125Z,18.00
2023-05-12T16:55:06.949Z,17.90
2023-05-12T16:57:35.240Z,17.90
2023-05-12T17:00:05.544Z,17.90
2023-05-12T17:02:35.007Z,17.90
2023-05-12T17:05:03.111Z,17.90
2023-05-12T17:07:31.102Z,17.90
2023-05-12T17:09:59.078Z,17.90
2023-05-12T17:12:27.038Z,17.80
2023-05-12T17:15:06.310Z,17.80
2023-05-12T17:17:37.204Z,17.80
2023-05-12T17:20:06.330Z,17.80
2023-05-12T17:22:37.170Z,17.70
2023-05-12T17:25:05.793Z,17.60
2023-05-12T17:27:33.785Z,17.50
2023-05-12T17:30:03.999Z,17.50
2023-05-12T17:32:32.648Z,17.40
2023-05-12T17:35:02.281Z,17.50
2023-05-12T17:37:34.144Z,17.40
2023-05-12T17:40:02.124Z,17.50
2023-05-12T17:42:31.376Z,17.50
2023-05-12T17:44:59.681Z,17.40
2023-05-12T17:47:27.919Z,17.50
2023-05-12T17:49:56.519Z,17.40
2023-05-12T17:52:25.941Z,17.30
2023-05-12T17:54:57.049Z,17.30
2023-05-12T17:57:25.253Z,17.20
2023-05-12T17:59:53.258Z,17.20
2023-05-12T18:02:21.301Z,17.20
2023-05-12T18:04:49.983Z,17.10
2023-05-12T18:07:18.096Z,16.90
2023-05-12T18:09:47.905Z,16.90
2023-05-12T18:12:17.482Z,16.80
2023-05-12T18:14:46.111Z,16.70
2023-05-12T18:17:14.093Z,16.70
2023-05-12T18:19:42.048Z,16.60
2023-05-12T18:22:10.357Z,16.50
2023-05-12T18:24:38.323Z,16.50
2023-05-12T18:27:07.813Z,16.40
2023-05-12T18:29:35.776Z,16.40
2023-05-12T18:32:03.813Z,16.30
2023-05-12T18:34:31.953Z,16.30
2023-05-12T18:37:00.001Z,16.10
2023-05-12T18:39:28.026Z,15.80
2023-05-12T18:41:56.187Z,15.70
2023-05-12T18:44:25.482Z,15.60
2023-05-12T18:46:53.618Z,15.50
2023-05-12T18:49:22.002Z,15.30
2023-05-12T18:51:50.041Z,15.30
2023-05-12T18:54:18.012Z,15.20
2023-05-12T18:56:47.222Z,15.20
2023-05-12T18:59:15.222Z,15.10
2023-05-12T19:01:44.687Z,15.10
2023-05-12T19:04:12.789Z,15.20
2023-05-12T19:06:40.843Z,15.20
2023-05-12T19:09:08.982Z,15.20
2023-05-12T19:11:37.128Z,15.20
2023-05-12T19:14:05.083Z,15.20
2023-05-12T19:16:35.017Z,15.20
2023-05-12T19:19:04.810Z,15.20
2023-05-12T19:21:33.549Z,15.20
2023-05-12T19:24:02.130Z,15.30
2023-05-12T19:26:30.087Z,15.20
2023-05-12T19:28:58.036Z,15.20
2023-05-12T19:31:26.048Z,15.20
2023-05-12T19:33:54.105Z,15.20
2023-05-12T19:36:23.469Z,15.10
2023-05-12T19:38:51.505Z,15.10
2023-05-12T19:41:19.473Z,15.10
2023-05-12T19:43:47.482Z,15.10
2023-05-12T19:46:15.669Z,15.20
2023-05-12T19:48:43.791Z,15.10
2023-05-12T19:51:11.923Z,15.00
2023-05-12T19:53:43.064Z,15.00
2023-05-12T19:56:11.166Z,14.90
2023-05-12T19:58:39.308Z,14.70
2023-05-12T20:01:09.764Z,14.60
2023-05-12T20:03:37.785Z,14.50
2023-05-12T20:06:06.121Z,14.50
2023-05-12T20:08:34.074Z,14.40
2023-05-12T20:11:03.471Z,14.30
2023-05-12T20:13:32.804Z,14.20
2023-05-12T20:16:01.007Z,14.20
2023-05-12T20:18:29.165Z,14.10
2023-05-12T20:20:57.450Z,14.10
2023-05-12T20:23:25.609Z,14.10
2023-05-12T20:25:53.887Z,14.10
2023-05-12T20:28:24.195Z,14.00
2023-05-12T20:30:52.658Z,14.00
2023-05-12T20:33:20.859Z,14.00
2023-05-12T20:35:48.909Z,14.10
2023-05-12T20:38:17.030Z,14.10
2023-05-12T20:40:45.205Z,14.20
2023-05-12T20:43:14.416Z,14.20
2023-05-12T20:45:44.096Z,14.20
2023-05-12T20:48:12.347Z,14.20
2023-05-12T20:50:40.657Z,14.20
2023-05-12T20:53:08.791Z,14.20
2023-05-12T20:55:36.928Z,14.20
2023-05-12T20:58:04.866Z,14.30
2023-05-12T21:00:32.935Z,14.20
2023-05-12T21:03:03.846Z,14.10
2023-05-12T21:05:31.913Z,14.00
2023-05-12T21:08:00.007Z,13.90
2023-05-12T21:10:27.860Z,13.80
2023-05-12T21:12:55.771Z,13.80
2023-05-12T21:15:25.359Z,13.70
2023-05-12T21:17:54.520Z,13.80
2023-05-12T21:20:23.831Z,13.70
2023-05-12T21:22:51.959Z,13.70
2023-05-12T21:25:20.706Z,13.60
2023-05-12T21:27:48.631Z,13.60
2023-05-12T21:30:16.849Z,13.60
2023-05-12T21:32:44.923Z,13.30
2023-05-12T21:35:12.972Z,13.20
2023-05-12T21:37:42.241Z,13.00
2023-05-12T21:40:11.700Z,12.90
2023-05-12T21:42:39.645Z,12.90
2023-05-12T21:45:08.692Z,12.90
2023-05-12T21:47:37.011Z,12.90
2023-05-12T21:50:05.461Z,12.90
2023-05-12T21:52:33.463Z,12.90
2023-05-12T21:55:04.654Z,12.90
2023-05-12T21:57:32.693Z,12.90
2023-05-12T22:00:03.734Z,12.90
2023-05-12T22:02:37.542Z,12.80
2023-05-12T22:05:06.293Z,12.80
2023-05-12T22:07:34.248Z,12.80
2023-05-12T22:10:04.674Z,12.70
2023-05-12T22:12:32.649Z,12.70
2023-05-12T22:15:00.673Z,12.70
2023-05-12T22:17:28.699Z,12.70
2023-05-12T22:19:56.835Z,12.70
2023-05-12T22:22:24.870Z,12.70
2023-05-12T22:24:52.826Z,12.60
2023-05-12T22:27:22.413Z,12.60
2023-05-12T22:29:50.480Z,12.60
2023-05-12T22:32:18.485Z,12.60
2023-05-12T22:34:46.454Z,12.60
2023-05-12T22:37:14.482Z,12.60
2023-05-12T22:39:42.392Z,12.60
2023-05-12T22:42:10.411Z,12.60
2023-05-12T22:44:39.722Z,12.60
2023-05-12T22:47:08.377Z,12.60
2023-05-12T22:49:36.506Z,12.70
2023-05-12T22:52:05.645Z,12.80
2023-05-12T22:54:33.619Z,12.60
2023-05-12T22:57:01.588Z,12.40
2023-05-12T22:59:29.556Z,12.30
2023-05-12T23:01:58.884Z,12.20
2023-05-12T23:04:27.065Z,12.20
2023-05-12T23:06:55.145Z,12.20
2023-05-12T23:09:23.113Z,12.20
2023-05-12T23:11:51.286Z,12.30
2023-05-12T23:14:19.282Z,12.40
2023-05-12T23:16:47.951Z,12.50
2023-05-12T23:19:17.500Z,12.60
2023-05-12T23:21:45.489Z,12.60
2023-05-12T23:24:13.433Z,12.50
2023-05-12T23:26:41.725Z,12.20
2023-05-12T23:29:09.737Z,12.20
2023-05-12T23:31:37.779Z,12.20
2023-05-12T23:34:06.037Z,12.30
2023-05-12T23:36:35.337Z,12.40
2023-05-12T23:39:07.455Z,12.40
2023-05-12T23:41:36.352Z,12.50
2023-05-12T23:44:04.454Z,12.50
2023-05-12T23:46:32.442Z,12.40
2023-05-12T23:49:00.480Z,12.40
2023-05-12T23:51:28.712Z,12.40
2023-05-12T23:53:58.061Z,12.40
2023-05-12T23:56:25.980Z,12.40
2023-05-12T23:58:53.879Z,12.40
